createdAt,value
2018-09-23T00:02:14.705Z,35.60
2018-09-23T00:04:43.746Z,30.80
2018-09-23T00:07:12.845Z,34.30
2018-09-23T00:09:41.846Z,36.80
2018-09-23T00:12:11.012Z,31.50
2018-09-23T00:14:40.130Z,31.40
2018-09-23T00:17:09.257Z,31.97
2018-09-23T00:19:38.301Z,32.23
2018-09-23T00:22:07.540Z,30.57
2018-09-23T00:24:36.588Z,32.27
2018-09-23T00:27:05.786Z,32.20
2018-09-23T00:29:40.257Z,33.67
2018-09-23T00:32:09.305Z,27.73
2018-09-23T00:34:38.397Z,34.50
2018-09-23T00:37:07.739Z,32.60
2018-09-23T00:39:36.772Z,36.13
2018-09-23T00:42:05.833Z,33.17
2018-09-23T00:44:34.843Z,32.33
2018-09-23T00:47:03.977Z,32.00
2018-09-23T00:49:33.001Z,33.83
2018-09-23T00:52:01.999Z,33.00
2018-09-23T00:54:31.095Z,32.00
2018-09-23T00:57:00.180Z,35.63
2018-09-23T00:59:29.250Z,34.47
2018-09-23T01:01:58.342Z,33.00
2018-09-23T01:04:27.402Z,35.57
2018-09-23T01:06:56.458Z,28.77
2018-09-23T01:09:25.524Z,27.93
2018-09-23T01:15:04.773Z,28.27
2018-09-23T01:17:33.769Z,26.63
2018-09-23T01:20:02.799Z,26.17
2018-09-23T01:22:31.948Z,27.40
2018-09-23T01:25:01.154Z,30.20
2018-09-23T01:27:33.071Z,28.43
2018-09-23T01:30:02.068Z,25.57
2018-09-23T01:32:31.120Z,28.20
2018-09-23T01:35:00.146Z,26.60
2018-09-23T01:37:29.154Z,24.27
2018-09-23T01:39:58.266Z,25.73
2018-09-23T01:42:27.347Z,25.47
2018-09-23T01:44:56.374Z,24.37
2018-09-23T01:47:25.427Z,23.13
2018-09-23T01:49:54.709Z,26.00
2018-09-23T01:52:23.818Z,23.87
2018-09-23T01:54:52.918Z,23.60
2018-09-23T01:57:21.989Z,26.23
2018-09-23T01:59:51.121Z,28.23
2018-09-23T02:02:20.138Z,24.97
2018-09-23T02:04:49.130Z,26.63
2018-09-23T02:07:18.166Z,32.13
2018-09-23T02:09:47.308Z,34.50
2018-09-23T02:12:16.330Z,25.97
2018-09-23T02:14:45.318Z,27.47
2018-09-23T02:17:14.354Z,27.60
2018-09-23T02:19:43.451Z,25.93
2018-09-23T02:22:12.513Z,27.00
2018-09-23T02:24:41.602Z,21.33
2018-09-23T02:27:10.622Z,22.50
2018-09-23T02:29:39.702Z,24.80
2018-09-23T02:32:08.782Z,23.87
2018-09-23T02:34:37.765Z,23.73
2018-09-23T02:37:06.788Z,23.27
2018-09-23T02:39:35.874Z,26.70
2018-09-23T02:42:05.023Z,27.97
2018-09-23T02:44:33.998Z,26.60
2018-09-23T02:47:03.189Z,26.13
2018-09-23T02:49:32.395Z,26.17
2018-09-23T02:52:01.409Z,27.00
2018-09-23T02:54:30.432Z,27.83
2018-09-23T02:56:59.447Z,25.47
2018-09-23T02:59:28.553Z,21.40
2018-09-23T03:01:57.546Z,21.87
2018-09-23T03:04:26.629Z,23.90
2018-09-23T03:06:55.729Z,22.83
2018-09-23T03:09:24.762Z,19.83
2018-09-23T03:11:53.802Z,24.77
2018-09-23T03:14:22.779Z,24.83
2018-09-23T03:16:51.807Z,23.93
2018-09-23T03:19:27.267Z,30.40
2018-09-23T03:21:56.357Z,24.90
2018-09-23T03:24:25.431Z,24.87
2018-09-23T03:26:54.509Z,20.17
2018-09-23T03:29:23.529Z,20.53
2018-09-23T03:31:52.623Z,21.30
2018-09-23T03:34:21.593Z,21.03
2018-09-23T03:36:50.607Z,22.50
2018-09-23T03:39:19.613Z,21.23
2018-09-23T03:41:48.651Z,22.93
2018-09-23T03:44:17.649Z,21.83
2018-09-23T03:46:46.651Z,19.77
2018-09-23T03:49:15.788Z,24.90
2018-09-23T03:51:44.851Z,20.50
2018-09-23T03:54:14.359Z,21.03
2018-09-23T03:56:44.087Z,21.23
2018-09-23T03:59:13.486Z,21.37
2018-09-23T04:01:42.590Z,18.67
2018-09-23T04:04:11.666Z,24.17
2018-09-23T04:06:40.656Z,22.23
2018-09-23T04:09:09.767Z,24.13
2018-09-23T04:11:38.935Z,21.43
2018-09-23T04:14:07.947Z,23.57
2018-09-23T04:16:36.921Z,22.87
2018-09-23T04:19:07.821Z,20.73
2018-09-23T04:21:36.857Z,26.03
2018-09-23T04:24:05.957Z,24.50
2018-09-23T04:26:34.977Z,23.93
2018-09-23T04:29:04.049Z,31.17
2018-09-23T04:31:33.163Z,29.80
2018-09-23T04:34:02.241Z,28.73
2018-09-23T04:36:31.206Z,31.60
2018-09-23T04:39:00.243Z,32.77
2018-09-23T04:41:29.337Z,33.47
2018-09-23T04:43:58.444Z,35.67
2018-09-23T04:46:27.510Z,35.40
2018-09-23T04:48:56.489Z,38.73
2018-09-23T04:51:25.515Z,41.80
2018-09-23T04:53:54.490Z,48.00
2018-09-23T04:56:23.571Z,43.17
2018-09-23T04:58:52.696Z,45.83
2018-09-23T05:01:21.794Z,49.43
2018-09-23T05:03:50.784Z,50.83
2018-09-23T05:06:19.793Z,51.90
2018-09-23T05:08:48.850Z,47.30
2018-09-23T05:11:17.978Z,51.27
2018-09-23T05:13:47.048Z,46.00
2018-09-23T05:16:16.155Z,50.93
2018-09-23T05:18:45.256Z,50.97
2018-09-23T05:21:14.355Z,48.50
2018-09-23T05:23:43.406Z,49.43
2018-09-23T05:26:12.416Z,51.40
2018-09-23T05:28:41.434Z,49.13
2018-09-23T05:31:10.570Z,47.57
2018-09-23T05:33:39.605Z,49.37
2018-09-23T05:36:08.711Z,52.93
2018-09-23T05:38:37.846Z,51.17
2018-09-23T05:41:07.010Z,51.50
2018-09-23T05:43:36.006Z,48.67
2018-09-23T05:46:05.003Z,59.07
2018-09-23T05:48:34.090Z,62.33
2018-09-23T05:51:03.082Z,56.93
2018-09-23T05:53:32.162Z,58.30
2018-09-23T05:56:01.167Z,58.33
2018-09-23T05:58:30.236Z,68.60
2018-09-23T06:00:59.274Z,62.47
2018-09-23T06:03:28.362Z,58.83
2018-09-23T06:05:57.576Z,60.43
2018-09-23T06:08:30.604Z,52.83
2018-09-23T06:10:59.655Z,53.07
2018-09-23T06:13:28.950Z,48.33
2018-09-23T06:15:58.018Z,54.60
2018-09-23T06:18:27.269Z,56.33
2018-09-23T06:20:56.241Z,48.20
2018-09-23T06:23:25.265Z,46.73
2018-09-23T06:25:54.283Z,45.97
2018-09-23T06:28:23.309Z,45.17
2018-09-23T06:30:52.395Z,47.47
2018-09-23T06:33:21.703Z,42.13
2018-09-23T06:35:50.757Z,43.60
2018-09-23T06:38:19.739Z,40.60
2018-09-23T06:40:48.796Z,39.93
2018-09-23T06:43:17.878Z,43.00
2018-09-23T06:45:46.870Z,38.23
2018-09-23T06:48:15.930Z,36.50
2018-09-23T06:50:44.974Z,43.67
2018-09-23T06:53:14.001Z,39.23
2018-09-23T06:55:42.969Z,38.13
2018-09-23T06:58:12.009Z,34.37
2018-09-23T07:00:41.017Z,27.87
2018-09-23T07:03:10.133Z,31.07
2018-09-23T07:05:39.181Z,32.47
2018-09-23T07:08:08.281Z,33.73
2018-09-23T07:10:37.320Z,32.50
2018-09-23T07:13:06.478Z,34.23
2018-09-23T07:15:35.437Z,34.57
2018-09-23T07:18:04.551Z,36.93
2018-09-23T07:20:33.585Z,42.40
2018-09-23T07:23:02.697Z,39.87
2018-09-23T07:25:31.732Z,40.27
2018-09-23T07:28:00.737Z,39.00
2018-09-23T07:30:29.701Z,40.30
2018-09-23T07:32:58.693Z,40.07
2018-09-23T07:35:27.669Z,38.60
2018-09-23T07:37:56.706Z,37.63
2018-09-23T07:40:25.745Z,37.87
2018-09-23T07:42:54.960Z,35.20
2018-09-23T07:45:23.938Z,34.37
2018-09-23T07:47:53.087Z,34.40
2018-09-23T07:50:22.171Z,29.80
2018-09-23T07:52:51.206Z,39.73
2018-09-23T07:55:20.298Z,38.17
2018-09-23T07:57:49.396Z,33.07
2018-09-23T08:00:18.382Z,32.23
2018-09-23T08:02:47.382Z,35.60
2018-09-23T08:05:16.489Z,41.60
2018-09-23T08:07:45.545Z,30.73
2018-09-23T08:10:14.582Z,31.40
2018-09-23T08:12:43.855Z,29.43
2018-09-23T08:15:12.964Z,27.00
2018-09-23T08:17:42.022Z,27.27
2018-09-23T08:20:11.165Z,27.80
2018-09-23T08:22:40.210Z,25.90
2018-09-23T08:25:09.222Z,29.43
2018-09-23T08:27:38.248Z,29.17
2018-09-23T08:30:07.623Z,24.23
2018-09-23T08:32:36.742Z,20.43
2018-09-23T08:35:05.873Z,24.20
2018-09-23T08:37:34.887Z,23.87
2018-09-23T08:40:03.952Z,19.03
2018-09-23T08:42:33.038Z,18.10
2018-09-23T08:45:02.053Z,22.33
2018-09-23T08:47:31.063Z,23.87
2018-09-23T08:50:00.067Z,16.60
2018-09-23T08:52:29.087Z,20.33
2018-09-23T08:54:58.197Z,20.83
2018-09-23T08:57:27.240Z,20.63
2018-09-23T08:59:56.206Z,20.77
2018-09-23T09:02:25.247Z,21.73
2018-09-23T09:04:54.252Z,17.00
2018-09-23T09:07:23.368Z,18.23
2018-09-23T09:09:52.329Z,18.93
2018-09-23T09:12:21.622Z,19.73
2018-09-23T09:14:50.663Z,21.97
2018-09-23T09:17:19.711Z,21.47
2018-09-23T09:19:48.801Z,21.57
2018-09-23T09:22:17.819Z,19.37
2018-09-23T09:24:46.930Z,18.37
2018-09-23T09:27:15.995Z,16.10
2018-09-23T09:29:45.180Z,13.87
2018-09-23T09:32:14.202Z,13.00
2018-09-23T09:34:43.318Z,14.63
2018-09-23T09:37:12.386Z,14.00
2018-09-23T09:39:41.424Z,13.47
2018-09-23T09:42:10.453Z,12.17
2018-09-23T09:44:39.526Z,15.93
2018-09-23T09:47:08.842Z,16.13
2018-09-23T09:49:37.846Z,16.37
2018-09-23T09:52:07.274Z,18.67
2018-09-23T09:54:36.302Z,18.17
2018-09-23T09:57:05.460Z,26.20
2018-09-23T09:59:34.583Z,24.90
2018-09-23T10:02:03.662Z,28.17
2018-09-23T10:04:32.692Z,30.37
2018-09-23T10:07:01.746Z,26.47
2018-09-23T10:09:30.798Z,26.13
2018-09-23T10:11:59.833Z,30.90
2018-09-23T10:14:28.971Z,32.67
2018-09-23T10:16:58.085Z,31.77
2018-09-23T10:19:27.100Z,34.77
2018-09-23T10:21:56.234Z,26.03
2018-09-23T10:24:26.435Z,31.10
2018-09-23T10:26:55.517Z,38.83
2018-09-23T10:29:24.524Z,25.97
2018-09-23T10:31:53.577Z,27.93
2018-09-23T10:34:22.625Z,26.30
2018-09-23T10:36:51.661Z,21.90
2018-09-23T10:39:20.721Z,19.23
2018-09-23T10:41:49.801Z,16.40
2018-09-23T10:44:18.883Z,21.27
2018-09-23T10:46:47.899Z,21.13
2018-09-23T10:49:16.965Z,22.23
2018-09-23T10:51:46.067Z,24.87
2018-09-23T10:54:15.091Z,26.93
2018-09-23T10:56:44.648Z,29.23
2018-09-23T10:59:14.005Z,35.20
2018-09-23T11:01:43.062Z,35.47
2018-09-23T11:04:12.191Z,51.03
2018-09-23T11:06:41.159Z,33.47
2018-09-23T11:09:10.409Z,29.77
2018-09-23T11:11:39.496Z,33.67
2018-09-23T11:14:08.592Z,17.60
2018-09-23T11:16:37.553Z,16.60
2018-09-23T11:19:06.611Z,15.27
2018-09-23T11:21:35.733Z,15.97
2018-09-23T11:24:05.118Z,14.13
2018-09-23T11:26:34.385Z,16.53
2018-09-23T11:29:03.496Z,13.00
2018-09-23T11:31:32.520Z,14.00
2018-09-23T11:34:01.519Z,15.03
2018-09-23T11:36:31.274Z,15.50
2018-09-23T11:39:01.239Z,17.50
2018-09-23T11:41:30.326Z,18.10
2018-09-23T11:43:59.450Z,15.57
2018-09-23T11:46:28.482Z,11.97
2018-09-23T11:48:57.477Z,11.97
2018-09-23T11:51:26.474Z,10.67
2018-09-23T11:53:55.502Z,9.33
2018-09-23T11:56:24.604Z,7.00
2018-09-23T11:58:53.684Z,7.90
2018-09-23T12:01:22.666Z,9.30
2018-09-23T12:03:51.754Z,9.97
2018-09-23T12:06:20.876Z,7.60
2018-09-23T12:08:49.846Z,7.57
2018-09-23T12:11:19.074Z,8.30
2018-09-23T12:13:48.138Z,8.00
2018-09-23T12:16:17.328Z,9.97
2018-09-23T12:18:46.314Z,9.33
2018-09-23T12:21:15.326Z,6.57
2018-09-23T12:23:44.538Z,10.20
2018-09-23T12:26:13.628Z,10.63
2018-09-23T12:28:42.722Z,12.87
2018-09-23T12:31:11.810Z,12.57
2018-09-23T12:33:41.870Z,12.13
2018-09-23T12:36:10.932Z,12.67
2018-09-23T12:38:40.014Z,13.70
2018-09-23T12:41:09.138Z,14.00
2018-09-23T12:43:38.146Z,16.10
2018-09-23T12:46:07.279Z,19.87
2018-09-23T12:48:36.318Z,19.07
2018-09-23T12:51:05.402Z,17.73
2018-09-23T12:53:34.522Z,15.67
2018-09-23T12:56:03.574Z,15.13
2018-09-23T12:58:32.658Z,14.07
2018-09-23T13:01:01.654Z,15.10
2018-09-23T13:03:30.670Z,12.43
2018-09-23T13:05:59.794Z,13.10
2018-09-23T13:08:28.872Z,14.70
2018-09-23T13:10:57.977Z,12.90
2018-09-23T13:13:28.061Z,12.87
2018-09-23T13:15:57.186Z,12.60
2018-09-23T13:18:26.232Z,13.37
2018-09-23T13:20:55.229Z,12.23
2018-09-23T13:23:24.234Z,9.87
2018-09-23T13:25:53.229Z,10.60
2018-09-23T13:28:22.198Z,12.53
2018-09-23T13:30:51.378Z,13.00
2018-09-23T13:33:20.370Z,15.63
2018-09-23T13:35:49.421Z,13.77
2018-09-23T13:38:18.411Z,12.47
2018-09-23T13:40:47.478Z,8.00
2018-09-23T13:43:16.514Z,8.73
2018-09-23T13:45:45.552Z,7.87
2018-09-23T13:48:14.558Z,8.40
2018-09-23T13:50:43.574Z,7.77
2018-09-23T13:53:12.641Z,8.67
2018-09-23T13:55:41.633Z,9.67
2018-09-23T13:58:10.627Z,8.50
2018-09-23T14:00:39.633Z,9.97
2018-09-23T14:03:10.045Z,10.97
2018-09-23T14:05:39.079Z,10.63
2018-09-23T14:08:08.069Z,10.93
2018-09-23T14:10:37.172Z,11.93
2018-09-23T14:13:06.223Z,10.70
2018-09-23T14:15:35.278Z,10.80
2018-09-23T14:18:04.508Z,8.30
2018-09-23T14:20:33.512Z,6.47
2018-09-23T14:23:02.514Z,8.03
2018-09-23T14:25:31.610Z,7.63
2018-09-23T14:28:00.620Z,9.30
2018-09-23T14:30:29.722Z,8.87
2018-09-23T14:32:58.840Z,8.60
2018-09-23T14:35:27.988Z,7.47
2018-09-23T14:37:57.008Z,7.67
2018-09-23T14:40:26.026Z,7.50
2018-09-23T14:42:55.049Z,7.07
2018-09-23T14:45:24.185Z,7.67
2018-09-23T14:47:53.213Z,8.30
2018-09-23T14:50:22.198Z,7.13
2018-09-23T14:52:51.233Z,8.43
2018-09-23T14:55:20.246Z,7.97
2018-09-23T14:57:49.247Z,8.83
2018-09-23T15:00:18.235Z,6.30
2018-09-23T15:02:47.308Z,7.17
2018-09-23T15:05:16.353Z,6.73
2018-09-23T15:07:45.436Z,6.57
2018-09-23T15:10:14.502Z,7.33
2018-09-23T15:12:43.501Z,7.37
2018-09-23T15:15:12.612Z,7.43
2018-09-23T15:17:41.618Z,7.30
2018-09-23T15:20:10.580Z,7.87
2018-09-23T15:22:39.578Z,7.60
2018-09-23T15:25:08.566Z,6.40
2018-09-23T15:27:37.876Z,6.60
2018-09-23T15:30:06.862Z,6.73
2018-09-23T15:32:35.834Z,9.13
2018-09-23T15:35:04.926Z,8.83
2018-09-23T15:37:34.982Z,10.47
2018-09-23T15:40:03.962Z,16.90
2018-09-23T15:42:33.057Z,11.87
2018-09-23T15:45:02.187Z,12.17
2018-09-23T15:47:31.241Z,13.57
2018-09-23T15:50:00.325Z,14.60
2018-09-23T15:52:29.351Z,14.10
2018-09-23T15:54:58.453Z,16.40
2018-09-23T15:57:27.451Z,11.40
2018-09-23T15:59:56.521Z,13.47
2018-09-23T16:02:25.657Z,10.17
2018-09-23T16:04:54.797Z,10.80
2018-09-23T16:07:23.852Z,14.67
2018-09-23T16:09:52.921Z,7.77
2018-09-23T16:12:21.969Z,8.90
2018-09-23T16:14:50.989Z,9.73
2018-09-23T16:17:20.007Z,7.13
2018-09-23T16:19:49.149Z,11.10
2018-09-23T16:22:18.161Z,12.77
2018-09-23T16:24:47.203Z,10.67
2018-09-23T16:27:16.217Z,9.13
2018-09-23T16:29:45.248Z,10.70
2018-09-23T16:32:14.315Z,9.93
2018-09-23T16:34:43.347Z,6.87
2018-09-23T16:37:12.470Z,10.93
2018-09-23T16:39:41.450Z,8.57
2018-09-23T16:42:10.515Z,8.53
2018-09-23T16:44:39.493Z,8.27
2018-09-23T16:47:08.525Z,10.73
2018-09-23T16:49:37.566Z,6.87
2018-09-23T16:52:06.576Z,11.90
2018-09-23T16:54:35.710Z,10.17
2018-09-23T16:57:04.673Z,8.00
2018-09-23T16:59:33.771Z,14.30
2018-09-23T17:02:02.801Z,4.67
2018-09-23T17:04:31.783Z,10.13
2018-09-23T17:07:00.857Z,6.70
2018-09-23T17:09:44.761Z,8.87
2018-09-23T17:12:29.453Z,5.97
2018-09-23T17:14:58.446Z,5.97
2018-09-23T17:17:27.526Z,8.33
2018-09-23T17:19:56.566Z,5.30
2018-09-23T17:22:25.606Z,12.60
2018-09-23T17:24:54.566Z,7.43
2018-09-23T17:27:23.637Z,5.53
2018-09-23T17:29:52.688Z,8.73
2018-09-23T17:32:21.666Z,7.20
2018-09-23T17:34:50.724Z,5.40
2018-09-23T17:37:19.797Z,6.87
2018-09-23T17:39:48.873Z,7.30
2018-09-23T17:42:17.839Z,4.67
2018-09-23T17:44:46.879Z,6.87
2018-09-23T17:47:15.862Z,7.20
2018-09-23T17:49:44.841Z,6.00
2018-09-23T17:52:13.834Z,5.00
2018-09-23T17:54:42.859Z,4.93
2018-09-23T17:57:11.937Z,9.30
2018-09-23T17:59:40.926Z,5.10
2018-09-23T18:02:09.978Z,7.60
2018-09-23T18:04:39.042Z,6.27
2018-09-23T18:07:08.511Z,8.87
2018-09-23T18:09:37.556Z,9.03
2018-09-23T18:12:06.619Z,6.13
2018-09-23T18:14:35.868Z,10.03
2018-09-23T18:17:04.862Z,6.60
2018-09-23T18:19:33.891Z,8.07
2018-09-23T18:22:02.895Z,8.50
2018-09-23T18:24:31.954Z,6.77
2018-09-23T18:27:00.988Z,7.63
2018-09-23T18:29:30.083Z,9.53
2018-09-23T18:31:59.166Z,10.27
2018-09-23T18:34:28.154Z,9.13
2018-09-23T18:36:57.190Z,9.63
2018-09-23T18:39:26.214Z,12.67
2018-09-23T18:41:55.226Z,14.17
2018-09-23T18:44:24.360Z,13.03
2018-09-23T18:47:00.727Z,14.00
2018-09-23T18:49:29.760Z,17.67
2018-09-23T18:51:58.862Z,15.27
2018-09-23T18:54:33.224Z,16.53
2018-09-23T18:57:02.302Z,18.27
2018-09-23T18:59:31.420Z,17.67
2018-09-23T19:02:00.490Z,17.50
2018-09-23T19:04:29.494Z,13.63
2018-09-23T19:06:58.626Z,13.83
2018-09-23T19:09:27.718Z,12.33
2018-09-23T19:11:56.774Z,9.43
2018-09-23T19:14:25.885Z,12.50
2018-09-23T19:16:54.969Z,14.53
2018-09-23T19:19:29.292Z,18.57
2018-09-23T19:21:58.279Z,14.17
2018-09-23T19:24:27.406Z,13.37
2018-09-23T19:26:56.466Z,11.97
2018-09-23T19:29:25.512Z,13.67
2018-09-23T19:31:54.488Z,12.83
2018-09-23T19:34:23.525Z,17.00
2018-09-23T19:36:52.517Z,10.70
2018-09-23T19:39:21.558Z,11.27
2018-09-23T19:41:50.609Z,13.40
2018-09-23T19:44:19.609Z,10.97
2018-09-23T19:46:48.693Z,15.73
2018-09-23T19:49:17.721Z,11.93
2018-09-23T19:51:46.815Z,9.00
2018-09-23T19:54:15.900Z,11.40
2018-09-23T19:56:44.984Z,9.47
2018-09-23T19:59:14.026Z,9.83
2018-09-23T20:01:43.062Z,10.43
2018-09-23T20:04:12.092Z,12.90
2018-09-23T20:06:41.239Z,8.53
2018-09-23T20:09:11.157Z,10.23
2018-09-23T20:11:40.266Z,10.03
2018-09-23T20:14:09.325Z,10.23
2018-09-23T20:16:38.386Z,8.10
2018-09-23T20:19:08.059Z,8.93
2018-09-23T20:21:37.457Z,9.17
2018-09-23T20:24:06.157Z,8.77
2018-09-23T20:26:35.165Z,11.10
2018-09-23T20:29:04.187Z,5.90
2018-09-23T20:31:33.289Z,8.97
2018-09-23T20:34:02.533Z,7.80
2018-09-23T20:36:31.644Z,12.97
2018-09-23T20:39:00.868Z,12.67
2018-09-23T20:41:29.820Z,11.90
2018-09-23T20:43:58.876Z,11.97
2018-09-23T20:46:27.949Z,13.37
2018-09-23T20:48:56.945Z,13.97
2018-09-23T20:51:25.909Z,12.20
2018-09-23T20:53:55.215Z,10.33
2018-09-23T20:56:24.157Z,13.60
2018-09-23T20:58:53.171Z,12.10
2018-09-23T21:01:22.227Z,14.73
2018-09-23T21:03:51.283Z,19.83
2018-09-23T21:06:20.281Z,15.87
2018-09-23T21:08:49.375Z,17.37
2018-09-23T21:11:18.486Z,20.90
2018-09-23T21:13:47.516Z,17.50
2018-09-23T21:16:16.527Z,17.57
2018-09-23T21:18:45.529Z,22.30
2018-09-23T21:21:14.649Z,23.67
2018-09-23T21:23:43.737Z,19.20
2018-09-23T21:26:12.915Z,24.87
2018-09-23T21:28:41.930Z,27.30
2018-09-23T21:31:11.071Z,20.80
2018-09-23T21:33:40.126Z,20.13
2018-09-23T21:36:09.137Z,29.10
2018-09-23T21:38:38.218Z,26.50
2018-09-23T21:41:07.418Z,21.57
2018-09-23T21:43:36.378Z,25.27
2018-09-23T21:46:05.342Z,29.00
2018-09-23T21:48:34.375Z,25.27
2018-09-23T21:51:03.402Z,29.60
2018-09-23T21:53:32.370Z,24.83
2018-09-23T21:56:01.453Z,28.80
2018-09-23T21:58:30.474Z,26.40
2018-09-23T22:00:59.676Z,28.63
2018-09-23T22:03:28.788Z,23.77
2018-09-23T22:05:57.823Z,26.87
2018-09-23T22:08:26.908Z,28.90
2018-09-23T22:10:55.978Z,25.70
2018-09-23T22:13:25.018Z,22.53
2018-09-23T22:15:54.114Z,26.87
2018-09-23T22:18:23.127Z,26.17
2018-09-23T22:20:52.165Z,28.53
2018-09-23T22:23:21.150Z,23.60
2018-09-23T22:25:50.144Z,23.93
2018-09-23T22:28:19.220Z,25.37
2018-09-23T22:30:48.232Z,28.20
2018-09-23T22:33:17.234Z,30.57
2018-09-23T22:35:46.242Z,26.57
2018-09-23T22:38:15.252Z,21.40
2018-09-23T22:40:44.289Z,25.10
2018-09-23T22:43:13.334Z,24.17
2018-09-23T22:45:42.341Z,23.10
2018-09-23T22:48:11.533Z,26.63
2018-09-23T22:50:40.570Z,27.57
2018-09-23T22:53:09.615Z,26.50
2018-09-23T22:55:38.614Z,26.97
2018-09-23T22:58:07.766Z,32.27
2018-09-23T23:00:36.830Z,28.93
2018-09-23T23:03:06.007Z,27.30
2018-09-23T23:05:35.124Z,27.20
2018-09-23T23:08:04.214Z,29.20
2018-09-23T23:10:33.299Z,33.13
2018-09-23T23:13:02.369Z,32.13
2018-09-23T23:15:31.353Z,26.13
2018-09-23T23:18:00.343Z,25.90
2018-09-23T23:20:29.329Z,30.00
2018-09-23T23:22:58.341Z,27.37
2018-09-23T23:25:27.346Z,29.43
2018-09-23T23:27:56.434Z,27.37
2018-09-23T23:30:25.445Z,26.03
2018-09-23T23:32:54.518Z,29.13
2018-09-23T23:35:23.527Z,21.83
2018-09-23T23:37:52.633Z,25.57
2018-09-23T23:40:21.747Z,20.27
2018-09-23T23:42:50.805Z,19.37
2018-09-23T23:45:19.765Z,20.77
2018-09-23T23:47:48.880Z,22.70
2018-09-23T23:50:17.930Z,19.27
2018-09-23T23:52:46.917Z,22.53
2018-09-23T23:55:15.887Z,19.50
2018-09-23T23:57:44.988Z,19.40
